sensor_id;sensor_type;location;lat;lon;timestamp;P1;durP1;ratioP1;P2;durP2;ratioP2
2225;SDS011;1119;48.288;8.726;2022-09-09T00:01:22;3.87;;;3.67;;
2225;SDS011;1119;48.288;8.726;2022-09-09T00:04:00;3.70;;;3.50;;
2225;SDS011;1119;48.288;8.726;2022-09-09T00:06:42;3.83;;;3.63;;
2225;SDS011;1119;48.288;8.726;2022-09-09T00:09:15;3.60;;;3.50;;
2225;SDS011;1119;48.288;8.726;2022-09-09T00:11:46;4.10;;;3.83;;
2225;SDS011;1119;48.288;8.726;2022-09-09T00:14:18;4.10;;;3.90;;
2225;SDS011;1119;48.288;8.726;2022-09-09T00:16:55;4.00;;;3.90;;
2225;SDS011;1119;48.288;8.726;2022-09-09T00:19:31;4.10;;;3.47;;
2225;SDS011;1119;48.288;8.726;2022-09-09T00:22:12;3.63;;;3.43;;
2225;SDS011;1119;48.288;8.726;2022-09-09T00:24:43;4.53;;;4.23;;
2225;SDS011;1119;48.288;8.726;2022-09-09T00:27:16;3.27;;;3.00;;
2225;SDS011;1119;48.288;8.726;2022-09-09T00:29:51;3.80;;;3.53;;
2225;SDS011;1119;48.288;8.726;2022-09-09T00:32:24;4.20;;;3.80;;
2225;SDS011;1119;48.288;8.726;2022-09-09T00:34:57;3.97;;;3.83;;
2225;SDS011;1119;48.288;8.726;2022-09-09T00:37:30;4.03;;;3.83;;
2225;SDS011;1119;48.288;8.726;2022-09-09T00:39:59;3.87;;;3.60;;
2225;SDS011;1119;48.288;8.726;2022-09-09T00:42:36;3.63;;;3.40;;
2225;SDS011;1119;48.288;8.726;2022-09-09T00:45:15;3.60;;;3.40;;
2225;SDS011;1119;48.288;8.726;2022-09-09T00:47:58;4.20;;;3.90;;
2225;SDS011;1119;48.288;8.726;2022-09-09T00:50:35;3.77;;;3.67;;
2225;SDS011;1119;48.288;8.726;2022-09-09T00:53:20;4.07;;;3.97;;
2225;SDS011;1119;48.288;8.726;2022-09-09T00:55:59;4.80;;;3.40;;
2225;SDS011;1119;48.288;8.726;2022-09-09T00:58:36;6.00;;;3.73;;
2225;SDS011;1119;48.288;8.726;2022-09-09T01:01:03;3.83;;;3.73;;
2225;SDS011;1119;48.288;8.726;2022-09-09T01:03:38;6.50;;;3.83;;
2225;SDS011;1119;48.288;8.726;2022-09-09T01:06:14;4.10;;;3.93;;
2225;SDS011;1119;48.288;8.726;2022-09-09T01:08:55;3.87;;;3.57;;
2225;SDS011;1119;48.288;8.726;2022-09-09T01:11:33;3.23;;;3.03;;
2225;SDS011;1119;48.288;8.726;2022-09-09T01:14:14;3.70;;;3.50;;
2225;SDS011;1119;48.288;8.726;2022-09-09T01:16:53;3.73;;;3.63;;
2225;SDS011;1119;48.288;8.726;2022-09-09T01:19:37;4.10;;;3.90;;
2225;SDS011;1119;48.288;8.726;2022-09-09T01:22:20;5.00;;;4.37;;
2225;SDS011;1119;48.288;8.726;2022-09-09T01:25:07;4.40;;;4.17;;
2225;SDS011;1119;48.288;8.726;2022-09-09T01:28:04;9.70;;;3.70;;
2225;SDS011;1119;48.288;8.726;2022-09-09T01:30:38;3.77;;;3.67;;
2225;SDS011;1119;48.288;8.726;2022-09-09T01:33:11;4.40;;;4.00;;
2225;SDS011;1119;48.288;8.726;2022-09-09T01:35:43;3.80;;;3.57;;
2225;SDS011;1119;48.288;8.726;2022-09-09T01:38:16;4.47;;;4.13;;
2225;SDS011;1119;48.288;8.726;2022-09-09T01:40:46;3.70;;;3.60;;
2225;SDS011;1119;48.288;8.726;2022-09-09T01:43:16;3.83;;;3.63;;
2225;SDS011;1119;48.288;8.726;2022-09-09T01:45:43;5.33;;;3.37;;
2225;SDS011;1119;48.288;8.726;2022-09-09T01:48:13;3.80;;;3.70;;
2225;SDS011;1119;48.288;8.726;2022-09-09T01:50:49;3.60;;;3.40;;
2225;SDS011;1119;48.288;8.726;2022-09-09T01:53:18;3.40;;;3.10;;
2225;SDS011;1119;48.288;8.726;2022-09-09T01:55:48;4.60;;;4.33;;
2225;SDS011;1119;48.288;8.726;2022-09-09T01:58:36;4.70;;;4.40;;
2225;SDS011;1119;48.288;8.726;2022-09-09T02:01:15;3.93;;;3.50;;
2225;SDS011;1119;48.288;8.726;2022-09-09T02:03:54;4.53;;;4.20;;
2225;SDS011;1119;48.288;8.726;2022-09-09T02:06:27;3.60;;;3.40;;
2225;SDS011;1119;48.288;8.726;2022-09-09T02:09:10;4.63;;;4.13;;
2225;SDS011;1119;48.288;8.726;2022-09-09T02:11:39;6.63;;;3.80;;
2225;SDS011;1119;48.288;8.726;2022-09-09T02:14:18;3.57;;;3.37;;
2225;SDS011;1119;48.288;8.726;2022-09-09T02:16:52;4.17;;;3.80;;
2225;SDS011;1119;48.288;8.726;2022-09-09T02:19:32;5.13;;;3.70;;
2225;SDS011;1119;48.288;8.726;2022-09-09T02:22:30;3.97;;;3.67;;
2225;SDS011;1119;48.288;8.726;2022-09-09T02:25:01;3.73;;;3.50;;
2225;SDS011;1119;48.288;8.726;2022-09-09T02:27:32;4.70;;;3.50;;
2225;SDS011;1119;48.288;8.726;2022-09-09T02:30:02;3.43;;;3.23;;
2225;SDS011;1119;48.288;8.726;2022-09-09T02:32:40;3.40;;;3.30;;
2225;SDS011;1119;48.288;8.726;2022-09-09T02:35:12;4.57;;;4.10;;
2225;SDS011;1119;48.288;8.726;2022-09-09T02:37:42;4.63;;;4.23;;
2225;SDS011;1119;48.288;8.726;2022-09-09T02:40:13;6.10;;;3.70;;
2225;SDS011;1119;48.288;8.726;2022-09-09T02:42:46;3.00;;;2.90;;
2225;SDS011;1119;48.288;8.726;2022-09-09T02:45:18;3.30;;;3.20;;
2225;SDS011;1119;48.288;8.726;2022-09-09T02:47:51;3.57;;;3.27;;
2225;SDS011;1119;48.288;8.726;2022-09-09T02:50:29;3.30;;;3.10;;
2225;SDS011;1119;48.288;8.726;2022-09-09T02:53:06;3.57;;;3.37;;
2225;SDS011;1119;48.288;8.726;2022-09-09T02:55:45;3.50;;;3.40;;
2225;SDS011;1119;48.288;8.726;2022-09-09T02:58:18;3.40;;;3.30;;
2225;SDS011;1119;48.288;8.726;2022-09-09T03:00:56;3.30;;;3.17;;
2225;SDS011;1119;48.288;8.726;2022-09-09T03:03:26;3.13;;;3.03;;
2225;SDS011;1119;48.288;8.726;2022-09-09T03:05:55;4.60;;;3.40;;
2225;SDS011;1119;48.288;8.726;2022-09-09T03:08:24;4.33;;;3.90;;
2225;SDS011;1119;48.288;8.726;2022-09-09T03:10:53;5.63;;;4.30;;
2225;SDS011;1119;48.288;8.726;2022-09-09T03:13:21;6.30;;;3.77;;
2225;SDS011;1119;48.288;8.726;2022-09-09T03:15:49;3.70;;;3.43;;
2225;SDS011;1119;48.288;8.726;2022-09-09T03:18:20;6.13;;;4.47;;
2225;SDS011;1119;48.288;8.726;2022-09-09T03:20:51;5.23;;;4.73;;
2225;SDS011;1119;48.288;8.726;2022-09-09T03:23:19;4.30;;;4.00;;
2225;SDS011;1119;48.288;8.726;2022-09-09T03:25:48;3.80;;;3.70;;
2225;SDS011;1119;48.288;8.726;2022-09-09T03:28:21;3.77;;;3.57;;
2225;SDS011;1119;48.288;8.726;2022-09-09T03:30:50;3.33;;;3.23;;
2225;SDS011;1119;48.288;8.726;2022-09-09T03:33:20;4.43;;;3.93;;
2225;SDS011;1119;48.288;8.726;2022-09-09T03:35:47;4.40;;;4.13;;
2225;SDS011;1119;48.288;8.726;2022-09-09T03:38:16;3.53;;;3.33;;
2225;SDS011;1119;48.288;8.726;2022-09-09T03:40:48;5.33;;;3.80;;
2225;SDS011;1119;48.288;8.726;2022-09-09T03:43:17;3.80;;;3.70;;
2225;SDS011;1119;48.288;8.726;2022-09-09T03:45:45;4.03;;;3.83;;
2225;SDS011;1119;48.288;8.726;2022-09-09T03:48:14;4.63;;;4.30;;
2225;SDS011;1119;48.288;8.726;2022-09-09T03:50:45;4.00;;;3.80;;
2225;SDS011;1119;48.288;8.726;2022-09-09T03:53:13;4.60;;;4.13;;
2225;SDS011;1119;48.288;8.726;2022-09-09T03:55:43;3.80;;;3.57;;
2225;SDS011;1119;48.288;8.726;2022-09-09T03:58:11;4.03;;;3.83;;
2225;SDS011;1119;48.288;8.726;2022-09-09T04:00:39;4.00;;;3.80;;
2225;SDS011;1119;48.288;8.726;2022-09-09T04:03:07;4.67;;;4.30;;
2225;SDS011;1119;48.288;8.726;2022-09-09T04:05:35;4.30;;;4.20;;
2225;SDS011;1119;48.288;8.726;2022-09-09T04:08:06;4.67;;;4.40;;
2225;SDS011;1119;48.288;8.726;2022-09-09T04:10:34;4.70;;;4.50;;
2225;SDS011;1119;48.288;8.726;2022-09-09T04:13:03;5.23;;;4.93;;
2225;SDS011;1119;48.288;8.726;2022-09-09T04:15:31;4.63;;;4.43;;
2225;SDS011;1119;48.288;8.726;2022-09-09T04:18:00;5.47;;;5.10;;
2225;SDS011;1119;48.288;8.726;2022-09-09T04:20:27;4.80;;;4.50;;
2225;SDS011;1119;48.288;8.726;2022-09-09T04:22:55;5.67;;;5.10;;
2225;SDS011;1119;48.288;8.726;2022-09-09T04:25:24;5.00;;;4.80;;
2225;SDS011;1119;48.288;8.726;2022-09-09T04:27:53;5.03;;;4.63;;
2225;SDS011;1119;48.288;8.726;2022-09-09T04:30:20;4.87;;;4.57;;
2225;SDS011;1119;48.288;8.726;2022-09-09T04:32:48;4.60;;;4.20;;
2225;SDS011;1119;48.288;8.726;2022-09-09T04:35:15;6.53;;;4.30;;
2225;SDS011;1119;48.288;8.726;2022-09-09T04:37:44;4.13;;;4.03;;
2225;SDS011;1119;48.288;8.726;2022-09-09T04:40:11;4.70;;;4.40;;
2225;SDS011;1119;48.288;8.726;2022-09-09T04:42:39;4.30;;;4.10;;
2225;SDS011;1119;48.288;8.726;2022-09-09T04:45:11;4.37;;;4.17;;
2225;SDS011;1119;48.288;8.726;2022-09-09T04:47:41;4.37;;;4.17;;
2225;SDS011;1119;48.288;8.726;2022-09-09T04:50:08;5.03;;;4.83;;
2225;SDS011;1119;48.288;8.726;2022-09-09T04:52:37;5.67;;;5.30;;
2225;SDS011;1119;48.288;8.726;2022-09-09T04:55:06;5.30;;;5.10;;
2225;SDS011;1119;48.288;8.726;2022-09-09T04:57:34;7.07;;;6.60;;
2225;SDS011;1119;48.288;8.726;2022-09-09T05:00:04;5.23;;;4.93;;
2225;SDS011;1119;48.288;8.726;2022-09-09T05:02:37;5.50;;;5.13;;
2225;SDS011;1119;48.288;8.726;2022-09-09T05:05:04;4.90;;;4.63;;
2225;SDS011;1119;48.288;8.726;2022-09-09T05:07:32;5.37;;;4.90;;
2225;SDS011;1119;48.288;8.726;2022-09-09T05:10:00;5.93;;;5.50;;
2225;SDS011;1119;48.288;8.726;2022-09-09T05:12:30;5.03;;;4.73;;
2225;SDS011;1119;48.288;8.726;2022-09-09T05:14:57;5.03;;;4.70;;
2225;SDS011;1119;48.288;8.726;2022-09-09T05:17:26;4.83;;;4.63;;
2225;SDS011;1119;48.288;8.726;2022-09-09T05:19:54;4.47;;;4.17;;
2225;SDS011;1119;48.288;8.726;2022-09-09T05:22:22;4.30;;;3.83;;
2225;SDS011;1119;48.288;8.726;2022-09-09T05:24:50;4.67;;;4.27;;
2225;SDS011;1119;48.288;8.726;2022-09-09T05:27:18;4.30;;;4.00;;
2225;SDS011;1119;48.288;8.726;2022-09-09T05:29:47;5.20;;;4.30;;
2225;SDS011;1119;48.288;8.726;2022-09-09T05:32:14;5.53;;;5.13;;
2225;SDS011;1119;48.288;8.726;2022-09-09T05:34:46;4.60;;;4.30;;
2225;SDS011;1119;48.288;8.726;2022-09-09T05:37:14;3.80;;;3.67;;
2225;SDS011;1119;48.288;8.726;2022-09-09T05:39:41;4.37;;;4.17;;
2225;SDS011;1119;48.288;8.726;2022-09-09T05:42:09;4.13;;;3.80;;
2225;SDS011;1119;48.288;8.726;2022-09-09T05:44:37;3.40;;;3.30;;
2225;SDS011;1119;48.288;8.726;2022-09-09T05:47:04;4.47;;;4.17;;
2225;SDS011;1119;48.288;8.726;2022-09-09T05:49:33;3.60;;;3.47;;
2225;SDS011;1119;48.288;8.726;2022-09-09T05:52:02;3.87;;;3.60;;
2225;SDS011;1119;48.288;8.726;2022-09-09T05:54:29;3.83;;;3.70;;
2225;SDS011;1119;48.288;8.726;2022-09-09T05:56:58;3.73;;;3.53;;
2225;SDS011;1119;48.288;8.726;2022-09-09T05:59:25;4.53;;;4.33;;
2225;SDS011;1119;48.288;8.726;2022-09-09T06:01:55;4.63;;;4.43;;
2225;SDS011;1119;48.288;8.726;2022-09-09T06:04:28;3.87;;;3.67;;
2225;SDS011;1119;48.288;8.726;2022-09-09T06:06:55;4.30;;;3.93;;
2225;SDS011;1119;48.288;8.726;2022-09-09T06:09:24;3.43;;;3.33;;
2225;SDS011;1119;48.288;8.726;2022-09-09T06:11:51;3.97;;;3.80;;
2225;SDS011;1119;48.288;8.726;2022-09-09T06:14:21;4.20;;;4.00;;
2225;SDS011;1119;48.288;8.726;2022-09-09T06:16:50;3.77;;;3.60;;
2225;SDS011;1119;48.288;8.726;2022-09-09T06:19:24;4.53;;;4.20;;
2225;SDS011;1119;48.288;8.726;2022-09-09T06:21:54;4.17;;;3.97;;
2225;SDS011;1119;48.288;8.726;2022-09-09T06:24:21;4.00;;;3.90;;
2225;SDS011;1119;48.288;8.726;2022-09-09T06:26:50;3.77;;;3.60;;
2225;SDS011;1119;48.288;8.726;2022-09-09T06:29:22;5.33;;;4.90;;
2225;SDS011;1119;48.288;8.726;2022-09-09T06:31:51;4.47;;;4.17;;
2225;SDS011;1119;48.288;8.726;2022-09-09T06:34:22;3.97;;;3.77;;
2225;SDS011;1119;48.288;8.726;2022-09-09T06:36:54;4.10;;;3.90;;
2225;SDS011;1119;48.288;8.726;2022-09-09T06:39:24;3.67;;;3.57;;
2225;SDS011;1119;48.288;8.726;2022-09-09T06:41:51;3.57;;;3.30;;
2225;SDS011;1119;48.288;8.726;2022-09-09T06:44:37;5.10;;;4.80;;
2225;SDS011;1119;48.288;8.726;2022-09-09T06:47:08;3.63;;;3.43;;
2225;SDS011;1119;48.288;8.726;2022-09-09T06:49:37;4.50;;;4.10;;
2225;SDS011;1119;48.288;8.726;2022-09-09T06:52:08;3.33;;;3.23;;
2225;SDS011;1119;48.288;8.726;2022-09-09T06:54:36;3.80;;;3.60;;
2225;SDS011;1119;48.288;8.726;2022-09-09T06:57:04;3.90;;;3.60;;
2225;SDS011;1119;48.288;8.726;2022-09-09T06:59:33;4.60;;;4.30;;
2225;SDS011;1119;48.288;8.726;2022-09-09T07:02:01;3.90;;;3.70;;
2225;SDS011;1119;48.288;8.726;2022-09-09T07:04:30;3.53;;;3.43;;
2225;SDS011;1119;48.288;8.726;2022-09-09T07:06:57;4.70;;;4.33;;
2225;SDS011;1119;48.288;8.726;2022-09-09T07:09:24;3.63;;;3.53;;
2225;SDS011;1119;48.288;8.726;2022-09-09T07:11:54;4.87;;;4.10;;
2225;SDS011;1119;48.288;8.726;2022-09-09T07:14:25;4.00;;;3.80;;
2225;SDS011;1119;48.288;8.726;2022-09-09T07:16:56;4.30;;;4.20;;
2225;SDS011;1119;48.288;8.726;2022-09-09T07:19:25;3.83;;;3.70;;
2225;SDS011;1119;48.288;8.726;2022-09-09T07:21:54;4.03;;;3.80;;
2225;SDS011;1119;48.288;8.726;2022-09-09T07:24:23;4.80;;;4.00;;
2225;SDS011;1119;48.288;8.726;2022-09-09T07:26:51;3.90;;;3.70;;
2225;SDS011;1119;48.288;8.726;2022-09-09T07:29:20;3.67;;;3.30;;
2225;SDS011;1119;48.288;8.726;2022-09-09T07:31:49;3.70;;;3.53;;
2225;SDS011;1119;48.288;8.726;2022-09-09T07:34:23;3.40;;;3.20;;
2225;SDS011;1119;48.288;8.726;2022-09-09T07:36:50;3.97;;;3.80;;
2225;SDS011;1119;48.288;8.726;2022-09-09T07:39:18;3.90;;;3.80;;
2225;SDS011;1119;48.288;8.726;2022-09-09T07:41:50;4.20;;;4.00;;
2225;SDS011;1119;48.288;8.726;2022-09-09T07:44:22;4.83;;;4.63;;
2225;SDS011;1119;48.288;8.726;2022-09-09T07:47:02;5.90;;;3.80;;
2225;SDS011;1119;48.288;8.726;2022-09-09T07:49:37;4.23;;;3.73;;
2225;SDS011;1119;48.288;8.726;2022-09-09T07:52:06;4.83;;;3.80;;
2225;SDS011;1119;48.288;8.726;2022-09-09T07:54:34;3.10;;;2.90;;
2225;SDS011;1119;48.288;8.726;2022-09-09T07:57:04;3.83;;;3.63;;
2225;SDS011;1119;48.288;8.726;2022-09-09T07:59:35;3.40;;;3.20;;
2225;SDS011;1119;48.288;8.726;2022-09-09T08:02:02;5.70;;;3.60;;
2225;SDS011;1119;48.288;8.726;2022-09-09T08:04:33;3.80;;;3.00;;
2225;SDS011;1119;48.288;8.726;2022-09-09T08:07:01;3.90;;;3.00;;
2225;SDS011;1119;48.288;8.726;2022-09-09T08:09:34;4.47;;;4.17;;
2225;SDS011;1119;48.288;8.726;2022-09-09T08:12:10;4.10;;;3.90;;
2225;SDS011;1119;48.288;8.726;2022-09-09T08:14:39;4.20;;;3.90;;
2225;SDS011;1119;48.288;8.726;2022-09-09T08:17:07;3.07;;;2.93;;
2225;SDS011;1119;48.288;8.726;2022-09-09T08:19:34;4.07;;;3.70;;
2225;SDS011;1119;48.288;8.726;2022-09-09T08:22:04;3.87;;;3.67;;
2225;SDS011;1119;48.288;8.726;2022-09-09T08:24:34;3.60;;;3.40;;
2225;SDS011;1119;48.288;8.726;2022-09-09T08:27:02;3.40;;;3.17;;
2225;SDS011;1119;48.288;8.726;2022-09-09T08:29:30;4.70;;;3.53;;
2225;SDS011;1119;48.288;8.726;2022-09-09T08:31:59;3.40;;;3.30;;
2225;SDS011;1119;48.288;8.726;2022-09-09T08:34:27;3.10;;;2.90;;
2225;SDS011;1119;48.288;8.726;2022-09-09T08:36:58;2.80;;;2.60;;
2225;SDS011;1119;48.288;8.726;2022-09-09T08:39:34;3.73;;;3.10;;
2225;SDS011;1119;48.288;8.726;2022-09-09T08:45:00;3.43;;;3.30;;
2225;SDS011;1119;48.288;8.726;2022-09-09T08:47:51;2.67;;;2.47;;
2225;SDS011;1119;48.288;8.726;2022-09-09T08:50:32;3.13;;;3.03;;
2225;SDS011;1119;48.288;8.726;2022-09-09T08:53:19;3.10;;;2.90;;
2225;SDS011;1119;48.288;8.726;2022-09-09T08:55:52;3.27;;;3.07;;
2225;SDS011;1119;48.288;8.726;2022-09-09T08:58:30;3.83;;;3.57;;
2225;SDS011;1119;48.288;8.726;2022-09-09T09:01:11;2.80;;;2.70;;
2225;SDS011;1119;48.288;8.726;2022-09-09T09:04:02;2.80;;;2.70;;
2225;SDS011;1119;48.288;8.726;2022-09-09T09:06:42;3.60;;;3.50;;
2225;SDS011;1119;48.288;8.726;2022-09-09T09:09:20;3.83;;;3.60;;
2225;SDS011;1119;48.288;8.726;2022-09-09T09:12:08;2.90;;;2.80;;
2225;SDS011;1119;48.288;8.726;2022-09-09T09:14:43;3.67;;;3.47;;
2225;SDS011;1119;48.288;8.726;2022-09-09T09:17:13;3.20;;;3.10;;
2225;SDS011;1119;48.288;8.726;2022-09-09T09:19:47;3.60;;;3.30;;
2225;SDS011;1119;48.288;8.726;2022-09-09T09:22:17;8.60;;;4.30;;
2225;SDS011;1119;48.288;8.726;2022-09-09T09:24:50;4.60;;;3.73;;
2225;SDS011;1119;48.288;8.726;2022-09-09T09:27:26;3.83;;;3.57;;
2225;SDS011;1119;48.288;8.726;2022-09-09T09:30:10;3.30;;;3.10;;
2225;SDS011;1119;48.288;8.726;2022-09-09T09:32:44;3.63;;;3.33;;
2225;SDS011;1119;48.288;8.726;2022-09-09T09:35:21;3.60;;;3.40;;
2225;SDS011;1119;48.288;8.726;2022-09-09T09:37:49;3.73;;;3.50;;
2225;SDS011;1119;48.288;8.726;2022-09-09T09:40:17;6.13;;;3.30;;
2225;SDS011;1119;48.288;8.726;2022-09-09T09:42:48;4.30;;;3.47;;
2225;SDS011;1119;48.288;8.726;2022-09-09T09:45:23;3.47;;;3.10;;
2225;SDS011;1119;48.288;8.726;2022-09-09T09:47:58;2.90;;;2.80;;
2225;SDS011;1119;48.288;8.726;2022-09-09T09:50:30;3.70;;;3.40;;
2225;SDS011;1119;48.288;8.726;2022-09-09T09:52:59;3.67;;;3.53;;
2225;SDS011;1119;48.288;8.726;2022-09-09T09:55:33;3.50;;;3.20;;
2225;SDS011;1119;48.288;8.726;2022-09-09T09:58:02;3.30;;;3.20;;
2225;SDS011;1119;48.288;8.726;2022-09-09T10:00:32;3.53;;;3.33;;
2225;SDS011;1119;48.288;8.726;2022-09-09T10:03:12;4.73;;;3.10;;
2225;SDS011;1119;48.288;8.726;2022-09-09T10:05:50;3.13;;;2.93;;
2225;SDS011;1119;48.288;8.726;2022-09-09T10:08:18;3.23;;;3.00;;
2225;SDS011;1119;48.288;8.726;2022-09-09T10:10:57;3.93;;;2.90;;
2225;SDS011;1119;48.288;8.726;2022-09-09T10:13:52;3.20;;;3.00;;
2225;SDS011;1119;48.288;8.726;2022-09-09T10:16:31;3.73;;;3.43;;
2225;SDS011;1119;48.288;8.726;2022-09-09T10:19:13;4.37;;;3.93;;
2225;SDS011;1119;48.288;8.726;2022-09-09T10:27:47;3.60;;;3.23;;
2225;SDS011;1119;48.288;8.726;2022-09-09T10:30:28;3.60;;;3.30;;
2225;SDS011;1119;48.288;8.726;2022-09-09T10:33:09;3.47;;;3.27;;
2225;SDS011;1119;48.288;8.726;2022-09-09T10:35:42;5.13;;;2.90;;
2225;SDS011;1119;48.288;8.726;2022-09-09T10:38:19;3.33;;;3.20;;
2225;SDS011;1119;48.288;8.726;2022-09-09T10:41:06;6.13;;;3.73;;
2225;SDS011;1119;48.288;8.726;2022-09-09T10:44:05;3.73;;;3.53;;
2225;SDS011;1119;48.288;8.726;2022-09-09T10:47:05;5.10;;;3.70;;
2225;SDS011;1119;48.288;8.726;2022-09-09T10:52:58;3.27;;;3.17;;
2225;SDS011;1119;48.288;8.726;2022-09-09T10:55:35;3.23;;;3.03;;
2225;SDS011;1119;48.288;8.726;2022-09-09T10:58:08;3.40;;;3.30;;
2225;SDS011;1119;48.288;8.726;2022-09-09T11:00:41;3.03;;;2.73;;
2225;SDS011;1119;48.288;8.726;2022-09-09T11:03:14;3.73;;;3.53;;
2225;SDS011;1119;48.288;8.726;2022-09-09T11:05:47;3.40;;;3.20;;
2225;SDS011;1119;48.288;8.726;2022-09-09T11:08:19;3.20;;;2.90;;
2225;SDS011;1119;48.288;8.726;2022-09-09T11:10:52;3.20;;;3.00;;
2225;SDS011;1119;48.288;8.726;2022-09-09T11:13:26;2.80;;;2.70;;
2225;SDS011;1119;48.288;8.726;2022-09-09T11:16:04;3.10;;;2.90;;
2225;SDS011;1119;48.288;8.726;2022-09-09T11:18:44;5.97;;;5.47;;
2225;SDS011;1119;48.288;8.726;2022-09-09T11:21:16;3.03;;;2.93;;
2225;SDS011;1119;48.288;8.726;2022-09-09T11:23:52;3.10;;;3.00;;
2225;SDS011;1119;48.288;8.726;2022-09-09T11:26:25;3.17;;;2.97;;
2225;SDS011;1119;48.288;8.726;2022-09-09T11:29:16;2.80;;;2.70;;
2225;SDS011;1119;48.288;8.726;2022-09-09T11:32:26;3.20;;;3.10;;
2225;SDS011;1119;48.288;8.726;2022-09-09T11:35:22;3.17;;;3.00;;
2225;SDS011;1119;48.288;8.726;2022-09-09T11:38:07;5.23;;;3.50;;
2225;SDS011;1119;48.288;8.726;2022-09-09T11:40:58;3.20;;;3.10;;
2225;SDS011;1119;48.288;8.726;2022-09-09T11:43:29;4.97;;;3.20;;
2225;SDS011;1119;48.288;8.726;2022-09-09T11:45:59;4.00;;;3.70;;
2225;SDS011;1119;48.288;8.726;2022-09-09T11:48:31;2.80;;;2.70;;
2225;SDS011;1119;48.288;8.726;2022-09-09T11:51:02;3.00;;;2.90;;
2225;SDS011;1119;48.288;8.726;2022-09-09T11:53:32;3.13;;;3.03;;
2225;SDS011;1119;48.288;8.726;2022-09-09T11:56:10;4.17;;;3.87;;
2225;SDS011;1119;48.288;8.726;2022-09-09T11:58:44;3.63;;;3.40;;
2225;SDS011;1119;48.288;8.726;2022-09-09T12:04:16;3.93;;;3.53;;
2225;SDS011;1119;48.288;8.726;2022-09-09T12:06:56;3.83;;;3.57;;
2225;SDS011;1119;48.288;8.726;2022-09-09T12:09:29;4.93;;;3.30;;
2225;SDS011;1119;48.288;8.726;2022-09-09T12:12:21;2.90;;;2.80;;
2225;SDS011;1119;48.288;8.726;2022-09-09T12:14:58;2.63;;;2.53;;
2225;SDS011;1119;48.288;8.726;2022-09-09T12:17:49;2.73;;;2.63;;
2225;SDS011;1119;48.288;8.726;2022-09-09T12:23:35;4.73;;;2.83;;
2225;SDS011;1119;48.288;8.726;2022-09-09T12:26:17;3.27;;;3.10;;
2225;SDS011;1119;48.288;8.726;2022-09-09T12:29:00;2.77;;;2.63;;
2225;SDS011;1119;48.288;8.726;2022-09-09T12:31:42;3.40;;;3.23;;
2225;SDS011;1119;48.288;8.726;2022-09-09T12:34:27;2.87;;;2.60;;
2225;SDS011;1119;48.288;8.726;2022-09-09T12:37:03;3.30;;;3.10;;
2225;SDS011;1119;48.288;8.726;2022-09-09T12:39:38;3.17;;;2.87;;
2225;SDS011;1119;48.288;8.726;2022-09-09T12:42:16;3.60;;;3.30;;
2225;SDS011;1119;48.288;8.726;2022-09-09T12:44:50;3.13;;;2.90;;
2225;SDS011;1119;48.288;8.726;2022-09-09T12:47:25;2.90;;;2.80;;
2225;SDS011;1119;48.288;8.726;2022-09-09T12:50:00;2.77;;;2.67;;
2225;SDS011;1119;48.288;8.726;2022-09-09T12:52:28;3.43;;;3.33;;
2225;SDS011;1119;48.288;8.726;2022-09-09T12:54:59;3.37;;;3.17;;
2225;SDS011;1119;48.288;8.726;2022-09-09T12:57:31;3.03;;;2.83;;
2225;SDS011;1119;48.288;8.726;2022-09-09T13:00:07;4.03;;;3.63;;
2225;SDS011;1119;48.288;8.726;2022-09-09T13:02:50;3.80;;;3.60;;
2225;SDS011;1119;48.288;8.726;2022-09-09T13:05:21;3.10;;;2.90;;
2225;SDS011;1119;48.288;8.726;2022-09-09T13:07:50;3.93;;;3.63;;
2225;SDS011;1119;48.288;8.726;2022-09-09T13:10:22;3.40;;;3.00;;
2225;SDS011;1119;48.288;8.726;2022-09-09T13:12:52;5.10;;;2.70;;
2225;SDS011;1119;48.288;8.726;2022-09-09T13:15:21;2.80;;;2.70;;
2225;SDS011;1119;48.288;8.726;2022-09-09T13:17:54;2.83;;;2.73;;
2225;SDS011;1119;48.288;8.726;2022-09-09T13:20:23;2.70;;;2.30;;
2225;SDS011;1119;48.288;8.726;2022-09-09T13:22:51;2.90;;;2.80;;
2225;SDS011;1119;48.288;8.726;2022-09-09T13:25:21;2.60;;;2.50;;
2225;SDS011;1119;48.288;8.726;2022-09-09T13:27:52;3.40;;;3.20;;
2225;SDS011;1119;48.288;8.726;2022-09-09T13:30:26;4.03;;;3.40;;
2225;SDS011;1119;48.288;8.726;2022-09-09T13:33:02;3.03;;;2.90;;
2225;SDS011;1119;48.288;8.726;2022-09-09T13:35:48;3.10;;;2.90;;
2225;SDS011;1119;48.288;8.726;2022-09-09T13:38:19;3.27;;;3.07;;
2225;SDS011;1119;48.288;8.726;2022-09-09T13:40:54;2.67;;;2.57;;
2225;SDS011;1119;48.288;8.726;2022-09-09T13:43:24;3.20;;;3.00;;
2225;SDS011;1119;48.288;8.726;2022-09-09T13:45:53;3.67;;;3.10;;
2225;SDS011;1119;48.288;8.726;2022-09-09T13:48:24;3.37;;;2.80;;
2225;SDS011;1119;48.288;8.726;2022-09-09T13:50:55;3.20;;;3.00;;
2225;SDS011;1119;48.288;8.726;2022-09-09T13:53:26;3.13;;;2.93;;
2225;SDS011;1119;48.288;8.726;2022-09-09T13:55:54;3.10;;;2.90;;
2225;SDS011;1119;48.288;8.726;2022-09-09T13:58:22;3.37;;;3.07;;
2225;SDS011;1119;48.288;8.726;2022-09-09T14:00:50;8.17;;;4.63;;
2225;SDS011;1119;48.288;8.726;2022-09-09T14:03:18;3.07;;;2.87;;
2225;SDS011;1119;48.288;8.726;2022-09-09T14:05:47;3.10;;;3.00;;
2225;SDS011;1119;48.288;8.726;2022-09-09T14:08:17;4.20;;;3.30;;
2225;SDS011;1119;48.288;8.726;2022-09-09T14:10:50;3.73;;;3.43;;
2225;SDS011;1119;48.288;8.726;2022-09-09T14:13:17;4.03;;;3.83;;
2225;SDS011;1119;48.288;8.726;2022-09-09T14:15:47;3.20;;;2.90;;
2225;SDS011;1119;48.288;8.726;2022-09-09T14:18:15;3.13;;;2.93;;
2225;SDS011;1119;48.288;8.726;2022-09-09T14:20:43;3.10;;;3.00;;
2225;SDS011;1119;48.288;8.726;2022-09-09T14:23:12;4.90;;;3.33;;
2225;SDS011;1119;48.288;8.726;2022-09-09T14:25:41;3.70;;;3.50;;
2225;SDS011;1119;48.288;8.726;2022-09-09T14:28:09;3.40;;;3.20;;
2225;SDS011;1119;48.288;8.726;2022-09-09T14:30:38;4.90;;;4.40;;
2225;SDS011;1119;48.288;8.726;2022-09-09T14:33:06;4.33;;;3.27;;
2225;SDS011;1119;48.288;8.726;2022-09-09T14:35:34;3.17;;;3.07;;
2225;SDS011;1119;48.288;8.726;2022-09-09T14:38:01;3.30;;;3.00;;
2225;SDS011;1119;48.288;8.726;2022-09-09T14:40:31;4.17;;;3.03;;
2225;SDS011;1119;48.288;8.726;2022-09-09T14:42:58;3.60;;;3.40;;
2225;SDS011;1119;48.288;8.726;2022-09-09T14:45:26;3.33;;;3.23;;
2225;SDS011;1119;48.288;8.726;2022-09-09T14:47:53;2.33;;;2.23;;
2225;SDS011;1119;48.288;8.726;2022-09-09T14:50:21;3.13;;;2.30;;
2225;SDS011;1119;48.288;8.726;2022-09-09T14:52:49;3.17;;;3.07;;
2225;SDS011;1119;48.288;8.726;2022-09-09T14:55:16;2.80;;;2.80;;
2225;SDS011;1119;48.288;8.726;2022-09-09T14:57:45;2.80;;;2.60;;
2225;SDS011;1119;48.288;8.726;2022-09-09T15:00:12;2.90;;;2.80;;
2225;SDS011;1119;48.288;8.726;2022-09-09T15:02:41;2.67;;;2.50;;
2225;SDS011;1119;48.288;8.726;2022-09-09T15:05:08;2.60;;;2.60;;
2225;SDS011;1119;48.288;8.726;2022-09-09T15:07:35;3.43;;;3.00;;
2225;SDS011;1119;48.288;8.726;2022-09-09T15:10:03;2.60;;;2.50;;
2225;SDS011;1119;48.288;8.726;2022-09-09T15:12:32;3.47;;;3.03;;
2225;SDS011;1119;48.288;8.726;2022-09-09T15:15:02;2.70;;;2.60;;
2225;SDS011;1119;48.288;8.726;2022-09-09T15:17:30;2.23;;;2.13;;
2225;SDS011;1119;48.288;8.726;2022-09-09T15:19:57;2.20;;;2.20;;
2225;SDS011;1119;48.288;8.726;2022-09-09T15:22:24;4.73;;;3.07;;
2225;SDS011;1119;48.288;8.726;2022-09-09T15:24:52;2.73;;;2.63;;
2225;SDS011;1119;48.288;8.726;2022-09-09T15:27:19;3.10;;;3.00;;
2225;SDS011;1119;48.288;8.726;2022-09-09T15:29:46;3.03;;;2.80;;
2225;SDS011;1119;48.288;8.726;2022-09-09T15:32:14;2.57;;;2.47;;
2225;SDS011;1119;48.288;8.726;2022-09-09T15:34:42;2.40;;;2.30;;
2225;SDS011;1119;48.288;8.726;2022-09-09T15:37:09;2.77;;;2.67;;
2225;SDS011;1119;48.288;8.726;2022-09-09T15:39:38;2.80;;;2.60;;
2225;SDS011;1119;48.288;8.726;2022-09-09T15:42:05;2.67;;;2.57;;
2225;SDS011;1119;48.288;8.726;2022-09-09T15:44:38;2.80;;;2.60;;
2225;SDS011;1119;48.288;8.726;2022-09-09T15:47:07;3.00;;;2.80;;
2225;SDS011;1119;48.288;8.726;2022-09-09T15:49:38;2.47;;;2.37;;
2225;SDS011;1119;48.288;8.726;2022-09-09T15:52:06;3.00;;;2.80;;
2225;SDS011;1119;48.288;8.726;2022-09-09T15:54:36;2.67;;;2.57;;
2225;SDS011;1119;48.288;8.726;2022-09-09T15:57:04;2.83;;;2.63;;
2225;SDS011;1119;48.288;8.726;2022-09-09T15:59:33;2.17;;;2.17;;
2225;SDS011;1119;48.288;8.726;2022-09-09T16:02:01;5.83;;;2.80;;
2225;SDS011;1119;48.288;8.726;2022-09-09T16:04:29;2.80;;;2.70;;
2225;SDS011;1119;48.288;8.726;2022-09-09T16:06:58;2.87;;;2.77;;